Flight Track Log - Related Links

Times and Time Zones

All times are in EDT time to prevent confusion due to time zone crossing. See the SKW5631 flight status page for this flight to view local times or setup timezone preferences in your user account.

Time Position Orientation Groundspeed Altitude Reporting Facility
EDT Latitude Longitude Course Direction KTS MPH feet Rate Location/Type
Thu 10:25:00 PM 37.2565 -121.9243 135° Southeast  Level Estimated
Thu 10:26:00 PM 37.1656 -121.8123 135° Southeast  Level Estimated
Thu 10:27:00 PM 37.0746 -121.7005 136° Southeast  Level Estimated
Thu 10:28:00 PM 36.9835 -121.5890 136° Southeast  Level Estimated
Thu 10:29:00 PM 36.8923 -121.4778 136° Southeast  Level Estimated
Thu 10:30:00 PM 36.8010 -121.3668 136° Southeast  Level Estimated
Thu 10:31:00 PM 36.7095 -121.2561 136° Southeast  Level Estimated
Thu 10:32:00 PM 36.6180 -121.1457 136° Southeast  Level Estimated
Thu 10:33:00 PM 36.5264 -121.0355 136° Southeast  Level Estimated
Thu 10:34:00 PM 36.4346 -120.9256 136° Southeast  Level Estimated
Thu 10:35:00 PM 36.3428 -120.8159 136° Southeast  Level Estimated
Thu 10:36:00 PM 36.2509 -120.7065 136° Southeast  Level Estimated
Thu 10:37:00 PM 36.1589 -120.5973 136° Southeast  Level Estimated
Thu 10:38:00 PM 36.0667 -120.4884 136° Southeast  Level Estimated
Thu 10:39:00 PM 35.9745 -120.3798 136° Southeast  Level Estimated
Thu 10:40:00 PM 35.8822 -120.2714 136° Southeast  Level Estimated
Thu 10:41:00 PM 35.7897 -120.1633 136° Southeast  Level Estimated
Thu 10:42:00 PM 35.6972 -120.0554 137° Southeast  Level Estimated
Thu 10:43:00 PM 35.6046 -119.9478 137° Southeast  Level Estimated
Thu 10:44:00 PM 35.5119 -119.8404 137° Southeast  Level Estimated
Thu 10:45:00 PM 35.4191 -119.7333 137° Southeast  Level Estimated
Thu 10:46:00 PM 35.3262 -119.6264 137° Southeast  Level Estimated
Thu 10:47:00 PM 35.2332 -119.5197 137° Southeast  Level Estimated
Thu 10:48:00 PM 35.1401 -119.4133 137° Southeast  Level Estimated
Thu 10:49:00 PM 35.0469 -119.3072 137° Southeast  Level Estimated
Thu 10:50:00 PM 34.9537 -119.2013 137° Southeast  Level Estimated
Thu 10:51:00 PM 34.8603 -119.0956 137° Southeast  Level Estimated
Thu 10:52:00 PM 34.7668 -118.9902 137° Southeast  Level Estimated
Thu 10:53:00 PM 34.6733 -118.8850 137° Southeast  Level Estimated
Thu 10:54:00 PM 34.5796 -118.7800 137° Southeast  Level Estimated
Thu 10:55:00 PM 34.5089 -118.7009 137° Southeast  Level Estimated
Thu 10:56:00 PM 34.4380 -118.6220 137° Southeast  Level Estimated
Thu 10:57:00 PM 34.3672 -118.5432 137° Southeast  Level Estimated
Thu 10:58:00 PM 34.2963 -118.4644 137° Southeast  Level Estimated
Thu 10:59:00 PM 34.2253 -118.3859 138° Southeast  Level Estimated
Thu 11:00:00 PM 34.2007 -118.3587 138° Southeast  Level Estimated
Thu 11:01:00 PM 34.2007 -118.3587 140° Southeast  Level Estimated
Thu 11:02:00 PM 34.2007 -118.3587 140° Southeast  Level Estimated
Thu 11:03:00 PM 34.2007 -118.3587 140° Southeast  Level Estimated
Thu 11:04:00 PM 34.2007 -118.3587 140° Southeast  Level Estimated
Thu 11:05:00 PM 34.2007 -118.3587 140° Southeast  Level Estimated
Thu 11:06:00 PM 34.2007 -118.3587 140° Southeast  Level Estimated
Thu 11:07:00 PM 34.2007 -118.3587 140° Southeast  Level Estimated
Thu 11:08:00 PM 34.2007 -118.3587 140° Southeast  Level Estimated
Thu 11:09:00 PM 34.2007 -118.3587 140° Southeast  Level Estimated
Thu 11:10:00 PM 34.2007 -118.3587 140° Southeast  Level Estimated
Thu 11:11:00 PM 34.2007 -118.3587 140° Southeast  Level Estimated
Thu 11:12:00 PM 34.2007 -118.3587 140° Southeast  Level Estimated
Thu 11:13:00 PM 34.2007 -118.3587 140° Southeast  Level Estimated

Login

Don't have an account? Register now (free) for customized features, flight alerts, and more!